Time;durP1;ratioP1;P1;durP2;ratioP2;P2;SDS_P1;SDS_P2;PMS_P1;PMS_P2;Temp;Humidity;BMP_temperature;BMP_pressure;BME280_temperature;BME280_humidity;BME280_pressure;Samples;Min_cycle;Max_cycle;Signal;HPM_P1;HPM_P2
2022/12/02 00:01:10;;;;;;;43.15;22.60;;;4.40;99.90;;;;;;5089108;28;20047;-69
2022/12/02 00:03:36;;;;;;;41.38;21.45;;;4.40;99.90;;;;;;5089807;28;20074;-69
2022/12/02 00:06:02;;;;;;;42.58;21.33;;;4.30;99.90;;;;;;5091180;28;20048;-69
2022/12/02 00:08:30;;;;;;;45.83;22.13;;;4.30;99.90;;;;;;5087926;28;20100;-69
2022/12/02 00:10:59;;;;;;;41.15;21.33;;;4.30;99.90;;;;;;5073377;28;20424;-69
2022/12/02 00:13:38;;;;;;;43.90;21.52;;;4.30;99.90;;;;;;5090776;28;20044;-69
2022/12/02 00:16:04;;;;;;;45.08;21.60;;;4.30;99.90;;;;;;5090804;28;20043;-69
2022/12/02 00:18:30;;;;;;;43.28;21.77;;;4.30;99.90;;;;;;5090114;28;20063;-69
2022/12/02 00:20:56;;;;;;;44.83;23.48;;;4.30;99.90;;;;;;5090580;28;20032;-69
2022/12/02 00:23:23;;;;;;;45.50;22.25;;;4.30;99.90;;;;;;5090477;28;20093;-69
2022/12/02 00:25:51;;;;;;;46.60;22.48;;;4.30;99.90;;;;;;5073787;28;20043;-69
2022/12/02 00:28:17;;;;;;;48.63;22.40;;;4.30;99.90;;;;;;5090446;28;20054;-69
2022/12/02 00:30:43;;;;;;;42.45;22.13;;;4.30;99.90;;;;;;5090416;28;20119;-68
2022/12/02 00:33:09;;;;;;;45.22;22.38;;;4.20;99.90;;;;;;5090551;28;20090;-69
2022/12/02 00:35:36;;;;;;;44.22;22.05;;;4.20;99.90;;;;;;5087679;28;20048;-69
2022/12/02 00:38:02;;;;;;;43.95;22.25;;;4.20;99.90;;;;;;5090176;28;20075;-69
2022/12/02 00:40:27;;;;;;;44.42;22.20;;;4.30;99.90;;;;;;5090380;28;20075;-68
2022/12/02 00:42:53;;;;;;;48.85;22.67;;;4.20;99.90;;;;;;5090152;28;20086;-69
2022/12/02 00:48:11;;;;;;;49.07;23.00;;;4.20;99.90;;;;;;5062766;28;20059;-69
2022/12/02 00:50:36;;;;;;;43.88;21.23;;;4.20;99.90;;;;;;5089825;28;20286;-69
2022/12/02 00:53:02;;;;;;;45.90;22.55;;;4.20;99.90;;;;;;5089258;28;20055;-68
2022/12/02 00:55:28;;;;;;;50.47;23.15;;;4.20;99.90;;;;;;5089362;28;20048;-69
2022/12/02 00:57:53;;;;;;;46.65;22.42;;;4.20;99.90;;;;;;5089926;28;20489;-69
2022/12/02 01:00:19;;;;;;;50.20;23.13;;;4.20;99.90;;;;;;5090198;28;20123;-68
2022/12/02 01:02:44;;;;;;;47.75;22.83;;;4.10;99.90;;;;;;5089695;28;20121;-68
2022/12/02 01:05:10;;;;;;;44.05;22.30;;;4.10;99.90;;;;;;5090170;28;20036;-69
2022/12/02 01:07:36;;;;;;;45.83;22.67;;;4.10;99.90;;;;;;5089803;28;20036;-69
2022/12/02 01:10:02;;;;;;;46.47;22.17;;;4.10;99.90;;;;;;5089736;28;20059;-69
2022/12/02 01:12:28;;;;;;;48.05;22.58;;;4.10;99.90;;;;;;5084403;28;20044;-69
2022/12/02 01:14:53;;;;;;;46.45;21.77;;;4.10;99.90;;;;;;5088897;28;20051;-69
2022/12/02 01:17:19;;;;;;;47.75;22.90;;;4.10;99.90;;;;;;5088858;28;20039;-69
2022/12/02 01:19:45;;;;;;;45.80;22.65;;;4.10;99.90;;;;;;5087601;28;20036;-68
2022/12/02 01:22:10;;;;;;;47.45;22.45;;;4.10;99.90;;;;;;5088817;28;20071;-69
2022/12/02 01:24:36;;;;;;;42.33;21.55;;;4.10;99.90;;;;;;5089548;28;20052;-68
2022/12/02 01:27:02;;;;;;;44.40;21.95;;;4.10;99.90;;;;;;5089276;28;20131;-69
2022/12/02 01:29:27;;;;;;;49.20;23.25;;;4.00;99.90;;;;;;5089512;28;20040;-69
2022/12/02 01:31:54;;;;;;;44.05;21.40;;;4.00;99.90;;;;;;5089662;28;20103;-69
2022/12/02 01:34:20;;;;;;;43.63;21.35;;;4.00;99.90;;;;;;5089830;28;20514;-69
2022/12/02 01:36:45;;;;;;;43.67;21.55;;;4.00;99.90;;;;;;5090975;28;20064;-68
2022/12/02 01:39:11;;;;;;;46.13;22.92;;;4.00;99.90;;;;;;5087529;28;20062;-68
2022/12/02 01:41:37;;;;;;;51.03;22.73;;;3.90;99.90;;;;;;5089058;28;20094;-69
2022/12/02 01:44:02;;;;;;;46.20;21.85;;;3.90;99.90;;;;;;5088315;28;20399;-69
2022/12/02 01:46:28;;;;;;;47.70;22.95;;;3.90;99.90;;;;;;5089518;28;20051;-68
2022/12/02 01:48:53;;;;;;;45.80;21.15;;;3.90;99.90;;;;;;5088380;28;20055;-68
2022/12/02 01:51:19;;;;;;;45.90;22.00;;;3.90;99.90;;;;;;5072493;28;20040;-68
2022/12/02 01:53:45;;;;;;;47.17;21.90;;;4.00;99.90;;;;;;5089668;28;20169;-68
2022/12/02 01:56:10;;;;;;;46.17;22.10;;;4.00;99.90;;;;;;5089282;28;20032;-69
2022/12/02 01:58:36;;;;;;;49.78;22.70;;;4.00;99.90;;;;;;5072326;28;20059;-69
2022/12/02 02:01:02;;;;;;;47.50;22.98;;;4.00;99.90;;;;;;5072686;28;20043;-69
2022/12/02 02:03:28;;;;;;;50.30;23.67;;;4.00;99.90;;;;;;5089144;28;20068;-69
2022/12/02 02:05:54;;;;;;;45.47;22.63;;;4.00;99.90;;;;;;5089559;28;20043;-69
2022/12/02 02:08:20;;;;;;;48.05;22.10;;;4.00;99.90;;;;;;5089221;28;20040;-69
2022/12/02 02:10:47;;;;;;;44.22;22.70;;;4.00;99.90;;;;;;5088794;28;20086;-69
2022/12/02 02:13:14;;;;;;;48.38;22.27;;;4.00;99.90;;;;;;5088815;28;20044;-69
2022/12/02 02:15:42;;;;;;;44.03;21.98;;;4.00;99.90;;;;;;5093253;28;20402;-69
2022/12/02 02:18:08;;;;;;;48.13;22.58;;;4.00;99.90;;;;;;5075594;28;20035;-68
2022/12/02 02:20:38;;;;;;;44.08;22.02;;;4.00;99.90;;;;;;5092686;28;20040;-69
2022/12/02 02:23:07;;;;;;;47.28;22.25;;;3.90;99.90;;;;;;5091344;28;20047;-69
2022/12/02 02:25:39;;;;;;;49.63;23.33;;;3.90;99.90;;;;;;5075242;28;20051;-69
2022/12/02 02:28:06;;;;;;;46.80;21.92;;;3.90;99.90;;;;;;5091379;28;20055;-69
2022/12/02 02:30:33;;;;;;;44.78;21.60;;;3.90;99.90;;;;;;5087860;28;20044;-69
2022/12/02 02:33:01;;;;;;;41.28;19.92;;;3.90;99.90;;;;;;5091313;28;20040;-69
2022/12/02 02:35:27;;;;;;;45.92;22.08;;;3.90;99.90;;;;;;5091677;28;20118;-69
2022/12/02 02:37:55;;;;;;;40.85;20.85;;;3.80;99.90;;;;;;5074602;28;20525;-69
2022/12/02 02:40:23;;;;;;;44.50;21.65;;;3.90;99.90;;;;;;5090100;28;20097;-69
2022/12/02 02:42:54;;;;;;;39.28;20.45;;;3.90;99.90;;;;;;5091792;28;20454;-69
2022/12/02 02:45:22;;;;;;;44.45;20.80;;;3.80;99.90;;;;;;5074220;28;20077;-69
2022/12/02 02:47:48;;;;;;;45.88;21.13;;;3.90;99.90;;;;;;5091188;28;20460;-68
2022/12/02 02:50:14;;;;;;;39.60;19.67;;;3.80;99.90;;;;;;5074315;28;20499;-69
2022/12/02 02:52:40;;;;;;;40.85;18.85;;;3.90;99.90;;;;;;5091464;28;20043;-69
2022/12/02 02:55:07;;;;;;;43.55;21.20;;;3.80;99.90;;;;;;5091316;28;20379;-68
2022/12/02 02:57:35;;;;;;;40.33;20.48;;;3.80;99.90;;;;;;5089330;28;20063;-69
2022/12/02 03:00:01;;;;;;;38.42;19.77;;;3.80;99.90;;;;;;5091300;28;20047;-69
2022/12/02 03:02:27;;;;;;;43.08;20.55;;;3.80;99.90;;;;;;5090841;28;20384;-69
2022/12/02 03:04:53;;;;;;;38.42;18.58;;;3.80;99.90;;;;;;5091592;28;20055;-68
2022/12/02 03:07:20;;;;;;;38.38;19.35;;;3.70;99.90;;;;;;5090828;28;20036;-68
2022/12/02 03:09:46;;;;;;;37.50;18.55;;;3.70;99.90;;;;;;5091615;28;20120;-68
2022/12/02 03:12:12;;;;;;;37.10;18.92;;;3.70;99.90;;;;;;5089639;28;20036;-68
2022/12/02 03:14:38;;;;;;;31.80;17.92;;;3.70;99.90;;;;;;5107279;28;20043;-69
2022/12/02 03:17:04;;;;;;;31.55;16.63;;;3.70;99.90;;;;;;5089797;28;20036;-69
2022/12/02 03:19:32;;;;;;;30.88;16.08;;;3.70;99.90;;;;;;5073106;28;20445;-69
2022/12/02 03:21:58;;;;;;;31.02;16.88;;;3.70;99.90;;;;;;5073988;28;20498;-68
2022/12/02 03:24:24;;;;;;;28.27;15.30;;;3.70;99.90;;;;;;5091626;28;20046;-69
2022/12/02 03:26:50;;;;;;;31.52;16.30;;;3.60;99.90;;;;;;5090006;28;20119;-69
2022/12/02 03:29:16;;;;;;;27.45;15.23;;;3.60;99.90;;;;;;5090259;28;20048;-69
2022/12/02 03:31:43;;;;;;;28.08;16.02;;;3.60;99.90;;;;;;5091305;28;20042;-69
2022/12/02 03:34:09;;;;;;;33.30;16.73;;;3.50;99.90;;;;;;5089756;28;20051;-69
2022/12/02 03:36:36;;;;;;;29.55;16.00;;;3.50;99.90;;;;;;5074427;28;20046;-69
2022/12/02 03:39:02;;;;;;;30.70;16.23;;;3.50;99.90;;;;;;5091463;28;20474;-68
2022/12/02 03:41:27;;;;;;;29.63;16.55;;;3.50;99.90;;;;;;5091364;28;20035;-69
2022/12/02 03:43:57;;;;;;;26.90;15.38;;;3.50;99.90;;;;;;5090520;28;20445;-68
2022/12/02 03:46:24;;;;;;;29.90;16.85;;;3.50;99.90;;;;;;5074410;28;20048;-69
2022/12/02 03:48:51;;;;;;;28.15;15.40;;;3.50;99.90;;;;;;5073279;28;20044;-68
2022/12/02 03:51:17;;;;;;;28.85;16.15;;;3.50;99.90;;;;;;5091383;28;20044;-68
2022/12/02 03:53:43;;;;;;;25.55;15.70;;;3.40;99.90;;;;;;5091121;28;20051;-69
2022/12/02 03:56:09;;;;;;;31.08;16.13;;;3.40;99.90;;;;;;5091270;28;20372;-69
2022/12/02 03:58:38;;;;;;;30.67;16.45;;;3.40;99.90;;;;;;5092289;28;20090;-69
2022/12/02 04:01:05;;;;;;;27.80;15.10;;;3.40;99.90;;;;;;5090917;28;20071;-69
2022/12/02 04:03:31;;;;;;;22.52;14.07;;;3.40;99.90;;;;;;5090809;28;20130;-68
2022/12/02 04:05:57;;;;;;;30.20;15.57;;;3.30;99.90;;;;;;5074193;28;20122;-68
2022/12/02 04:08:23;;;;;;;27.27;14.85;;;3.30;99.90;;;;;;5090871;28;20111;-68
2022/12/02 04:10:48;;;;;;;25.98;14.85;;;3.30;99.90;;;;;;5090834;28;20048;-69
2022/12/02 04:13:14;;;;;;;28.00;14.70;;;3.30;99.90;;;;;;5090958;28;20036;-68
2022/12/02 04:15:39;;;;;;;27.08;14.50;;;3.30;99.90;;;;;;5090615;28;20050;-68
2022/12/02 04:18:05;;;;;;;27.33;14.40;;;3.30;99.90;;;;;;5090160;28;20047;-68
2022/12/02 04:20:31;;;;;;;28.70;15.70;;;3.20;99.90;;;;;;5090810;28;20042;-69
2022/12/02 04:22:56;;;;;;;26.13;13.73;;;3.20;99.90;;;;;;5090843;28;20136;-69
2022/12/02 04:25:22;;;;;;;24.92;13.05;;;3.20;99.90;;;;;;5089952;28;20052;-68
2022/12/02 04:27:47;;;;;;;25.52;14.65;;;3.20;99.90;;;;;;5089984;28;20079;-69
2022/12/02 04:30:13;;;;;;;25.38;13.75;;;3.20;99.90;;;;;;5073532;28;20050;-69
2022/12/02 04:32:39;;;;;;;22.83;12.75;;;3.20;99.90;;;;;;5090520;28;20032;-68
2022/12/02 04:35:05;;;;;;;25.95;13.32;;;3.20;99.90;;;;;;5090149;28;20032;-69
2022/12/02 04:37:30;;;;;;;25.88;13.23;;;3.20;99.90;;;;;;5090275;28;20036;-68
2022/12/02 04:39:56;;;;;;;25.45;13.48;;;3.10;99.90;;;;;;5088385;28;20122;-68
2022/12/02 04:42:21;;;;;;;26.25;13.07;;;3.10;99.90;;;;;;5072332;28;20058;-69
2022/12/02 04:44:47;;;;;;;26.65;12.93;;;3.10;99.90;;;;;;5102637;28;20402;-69
2022/12/02 04:47:13;;;;;;;25.75;13.27;;;3.10;99.90;;;;;;5088567;28;20047;-68
2022/12/02 04:49:38;;;;;;;25.08;12.30;;;3.10;99.90;;;;;;5089595;28;20379;-68
2022/12/02 04:52:04;;;;;;;26.48;13.40;;;3.10;99.90;;;;;;5089561;28;20040;-69
2022/12/02 04:54:29;;;;;;;25.63;13.98;;;3.10;99.90;;;;;;5103571;28;20078;-69
2022/12/02 04:56:55;;;;;;;29.48;13.82;;;3.10;99.90;;;;;;5090017;28;20105;-68
2022/12/02 04:59:20;;;;;;;27.08;13.63;;;3.10;99.90;;;;;;5073429;28;20043;-69
2022/12/02 05:01:46;;;;;;;29.88;14.95;;;3.10;99.90;;;;;;5089791;28;20105;-69
2022/12/02 05:04:12;;;;;;;28.95;15.48;;;3.10;99.90;;;;;;5072497;28;20495;-68
2022/12/02 05:06:37;;;;;;;31.40;14.38;;;3.10;99.90;;;;;;5072210;28;20052;-69
2022/12/02 05:09:03;;;;;;;29.77;14.50;;;3.10;99.90;;;;;;5087717;28;20032;-69
2022/12/02 05:11:29;;;;;;;32.35;16.02;;;3.10;99.90;;;;;;5089913;28;20406;-69
2022/12/02 05:13:54;;;;;;;34.25;16.13;;;3.10;99.90;;;;;;5088367;28;20119;-69
2022/12/02 05:16:20;;;;;;;27.58;13.40;;;3.00;99.90;;;;;;5090340;28;20048;-69
2022/12/02 05:18:46;;;;;;;30.85;13.80;;;3.00;99.90;;;;;;5088647;28;20082;-68
2022/12/02 05:21:11;;;;;;;26.65;14.15;;;3.00;99.90;;;;;;5084815;28;20079;-69
2022/12/02 05:23:37;;;;;;;30.30;15.27;;;3.10;99.90;;;;;;5088558;28;20042;-69
2022/12/02 05:26:03;;;;;;;28.75;15.35;;;3.10;99.90;;;;;;5087321;28;20036;-69
2022/12/02 05:28:28;;;;;;;31.55;15.20;;;3.10;99.90;;;;;;5088672;28;20079;-69
2022/12/02 05:30:54;;;;;;;29.85;15.70;;;3.10;99.90;;;;;;5088755;28;20115;-68
2022/12/02 05:33:19;;;;;;;32.80;15.43;;;3.10;99.90;;;;;;5088123;28;20047;-69
2022/12/02 05:35:45;;;;;;;30.25;14.82;;;3.10;99.90;;;;;;5071557;28;20565;-68
2022/12/02 05:38:11;;;;;;;32.88;15.75;;;3.10;99.90;;;;;;5087986;28;20452;-68
2022/12/02 05:40:36;;;;;;;29.88;15.38;;;3.20;99.90;;;;;;5087127;28;20054;-68
2022/12/02 05:43:17;;;;;;;34.67;16.40;;;3.20;99.90;;;;;;5072001;28;20407;-69
2022/12/02 05:45:43;;;;;;;30.85;15.93;;;3.20;99.90;;;;;;5087955;28;20040;-69
2022/12/02 05:48:11;;;;;;;33.42;16.08;;;3.20;99.90;;;;;;5088363;28;20094;-68
2022/12/02 05:50:38;;;;;;;32.67;16.38;;;3.20;99.90;;;;;;5092952;28;20474;-69
2022/12/02 05:53:04;;;;;;;36.80;16.77;;;3.20;99.90;;;;;;5091677;28;20557;-69
2022/12/02 05:55:30;;;;;;;34.63;17.40;;;3.20;99.90;;;;;;5091729;28;20110;-69
2022/12/02 05:58:00;;;;;;;34.40;16.65;;;3.20;99.90;;;;;;5092021;28;20036;-68
2022/12/02 06:00:26;;;;;;;36.28;17.98;;;3.20;99.90;;;;;;5090336;28;20482;-69
2022/12/02 06:02:55;;;;;;;36.20;18.77;;;3.10;99.90;;;;;;5093474;28;20046;-69
2022/12/02 06:05:27;;;;;;;33.50;16.88;;;3.10;99.90;;;;;;5074826;28;20052;-69
2022/12/02 06:07:56;;;;;;;32.63;16.85;;;3.10;99.90;;;;;;5074187;28;20056;-68
2022/12/02 06:10:31;;;;;;;37.10;17.70;;;3.10;99.90;;;;;;5093282;28;20529;-68
2022/12/02 06:13:21;;;;;;;36.10;18.17;;;3.10;99.90;;;;;;5093403;28;20398;-68
2022/12/02 06:15:48;;;;;;;30.90;16.52;;;3.10;99.90;;;;;;5076516;28;20046;-68
2022/12/02 06:18:34;;;;;;;37.35;18.40;;;3.10;99.90;;;;;;5092714;28;20034;-69
2022/12/02 06:21:10;;;;;;;36.92;17.50;;;3.10;99.90;;;;;;5091564;28;20123;-69
2022/12/02 06:23:43;;;;;;;35.58;17.30;;;3.10;99.90;;;;;;5093139;28;20566;-69
2022/12/02 06:26:12;;;;;;;37.03;17.73;;;3.10;99.90;;;;;;5092623;28;20059;-69
2022/12/02 06:28:40;;;;;;;39.97;18.05;;;3.10;99.90;;;;;;5092830;28;20036;-68
2022/12/02 06:31:33;;;;;;;38.28;18.42;;;3.10;99.90;;;;;;5092831;28;20075;-68
2022/12/02 06:34:04;;;;;;;39.65;18.30;;;3.00;99.90;;;;;;5090660;28;20094;-68
2022/12/02 06:36:32;;;;;;;38.20;19.70;;;3.00;99.90;;;;;;5091972;28;20050;-68
2022/12/02 06:39:10;;;;;;;38.28;18.27;;;3.00;99.90;;;;;;5075322;28;20051;-68
2022/12/02 06:41:37;;;;;;;39.90;19.55;;;3.00;99.90;;;;;;5091367;28;20044;-69
2022/12/02 06:47:31;;;;;;;45.38;20.42;;;2.90;99.90;;;;;;5090844;28;20044;-68
2022/12/02 06:49:57;;;;;;;44.05;18.98;;;2.90;99.90;;;;;;5106773;28;20482;-68
2022/12/02 06:52:22;;;;;;;47.53;20.50;;;2.90;99.90;;;;;;5092315;28;20040;-68
2022/12/02 06:54:50;;;;;;;44.13;20.80;;;2.90;99.90;;;;;;5092318;28;20169;-68
2022/12/02 06:57:18;;;;;;;47.70;21.35;;;2.90;99.90;;;;;;5092281;28;20743;-69
2022/12/02 06:59:47;;;;;;;43.95;20.67;;;2.90;99.90;;;;;;5090410;28;20113;-68
2022/12/02 07:02:25;;;;;;;47.83;20.80;;;2.90;99.90;;;;;;5092210;28;20047;-68
2022/12/02 07:04:51;;;;;;;46.80;20.48;;;2.90;99.90;;;;;;5092057;28;20112;-68
2022/12/02 07:07:30;;;;;;;46.35;21.10;;;2.90;99.90;;;;;;5074841;28;20410;-69
2022/12/02 07:10:05;;;;;;;47.50;21.33;;;2.90;99.90;;;;;;5092249;28;20399;-69
2022/12/02 07:12:38;;;;;;;49.38;21.67;;;2.90;99.90;;;;;;5089680;28;20444;-70
2022/12/02 07:15:28;;;;;;;50.25;23.05;;;2.90;99.90;;;;;;5089683;28;20043;-68
2022/12/02 07:17:59;;;;;;;51.35;21.58;;;2.90;99.90;;;;;;4993892;28;20050;-69
2022/12/02 07:20:36;;;;;;;54.58;22.35;;;2.90;99.90;;;;;;4994208;28;20124;-68
2022/12/02 07:23:20;;;;;;;49.80;21.77;;;2.90;99.90;;;;;;4993255;28;20053;-69
2022/12/02 07:25:47;;;;;;;51.83;22.48;;;2.90;99.90;;;;;;4992099;28;20513;-69
2022/12/02 07:28:21;;;;;;;52.65;23.50;;;2.90;99.90;;;;;;4971401;28;20084;-69
2022/12/02 07:30:59;;;;;;;48.33;21.45;;;3.00;99.90;;;;;;4990854;28;20116;-69
2022/12/02 07:33:25;;;;;;;49.40;22.75;;;3.00;99.90;;;;;;4993671;28;20030;-69
2022/12/02 07:35:51;;;;;;;50.30;23.27;;;3.00;99.90;;;;;;4976523;28;20131;-69
2022/12/02 07:38:16;;;;;;;51.97;22.40;;;3.00;99.90;;;;;;4991920;28;20135;-69
2022/12/02 07:40:42;;;;;;;53.28;22.55;;;3.00;99.90;;;;;;4993532;28;20046;-69
2022/12/02 07:43:08;;;;;;;51.33;22.17;;;3.00;99.90;;;;;;4993833;28;20484;-68
2022/12/02 07:45:34;;;;;;;52.88;22.38;;;3.00;99.90;;;;;;4977298;28;20042;-69
2022/12/02 07:48:00;;;;;;;51.33;21.98;;;2.90;99.90;;;;;;4991429;28;20091;-68
2022/12/02 07:50:26;;;;;;;57.67;25.52;;;2.90;99.90;;;;;;4994035;28;20042;-69
2022/12/02 07:52:51;;;;;;;56.72;22.90;;;2.90;99.90;;;;;;4992881;28;20052;-69
2022/12/02 07:55:17;;;;;;;51.33;22.75;;;2.90;99.90;;;;;;5057134;28;20048;-69
2022/12/02 07:57:43;;;;;;;56.25;23.40;;;2.90;99.90;;;;;;5088161;28;20418;-69
2022/12/02 08:00:09;;;;;;;58.85;22.90;;;2.90;99.90;;;;;;5089935;28;20036;-69
2022/12/02 08:02:35;;;;;;;56.88;24.00;;;2.90;99.90;;;;;;5088578;28;20047;-69
2022/12/02 08:05:01;;;;;;;58.63;23.38;;;2.90;99.90;;;;;;5090722;28;20036;-69
2022/12/02 08:07:26;;;;;;;59.35;23.77;;;2.90;99.90;;;;;;5089328;28;20044;-69
2022/12/02 08:09:52;;;;;;;61.38;24.48;;;2.90;99.90;;;;;;5071673;28;20039;-69
2022/12/02 08:12:17;;;;;;;64.07;24.83;;;2.90;99.90;;;;;;5089907;28;20584;-69
2022/12/02 08:14:43;;;;;;;60.53;24.15;;;2.90;99.90;;;;;;5088404;28;20086;-69
2022/12/02 08:17:09;;;;;;;58.75;23.25;;;2.90;99.90;;;;;;5089154;28;20048;-69
2022/12/02 08:19:34;;;;;;;51.75;23.27;;;2.90;99.90;;;;;;5070713;28;20042;-69
2022/12/02 08:22:00;;;;;;;58.95;23.75;;;2.90;99.90;;;;;;5089882;28;20043;-69
2022/12/02 08:24:25;;;;;;;53.90;22.15;;;2.90;99.90;;;;;;5093199;28;20134;-69
2022/12/02 08:26:51;;;;;;;50.05;22.13;;;2.90;99.90;;;;;;5089896;28;20046;-70
2022/12/02 08:29:20;;;;;;;51.92;22.52;;;2.80;99.90;;;;;;5090103;28;20552;-69
2022/12/02 08:31:45;;;;;;;55.50;23.80;;;2.80;99.90;;;;;;5090033;28;20095;-69
2022/12/02 08:34:11;;;;;;;55.25;22.08;;;2.90;99.90;;;;;;5088966;28;20064;-69
2022/12/02 08:36:37;;;;;;;51.17;22.40;;;2.90;99.90;;;;;;5098241;28;20052;-69
2022/12/02 08:39:04;;;;;;;54.08;21.73;;;2.90;99.90;;;;;;5068277;28;20127;-69
2022/12/02 08:41:34;;;;;;;50.40;22.60;;;2.90;99.90;;;;;;5089191;28;20111;-69
2022/12/02 08:44:00;;;;;;;58.50;24.45;;;2.90;99.90;;;;;;5090370;28;20052;-69
2022/12/02 08:46:29;;;;;;;58.03;25.08;;;2.90;99.90;;;;;;5087227;28;20040;-69
2022/12/02 08:49:38;;;;;;;55.65;23.05;;;2.90;99.90;;;;;;5145928;27;20142;-69
2022/12/02 08:52:03;;;;;;;53.00;23.27;;;2.90;99.90;;;;;;5112150;28;20043;-69
2022/12/02 08:54:29;;;;;;;52.75;23.15;;;3.00;99.90;;;;;;5110623;28;20482;-70
2022/12/02 08:56:55;;;;;;;61.63;24.30;;;3.00;99.90;;;;;;5108883;28;20031;-71
2022/12/02 08:59:21;;;;;;;54.10;23.77;;;3.00;99.90;;;;;;5143567;27;20059;-67
2022/12/02 09:01:47;;;;;;;52.17;23.02;;;3.00;99.90;;;;;;5109360;28;20445;-66
2022/12/02 09:04:14;;;;;;;57.05;23.45;;;3.00;99.90;;;;;;5108831;28;20366;-66
2022/12/02 09:06:40;;;;;;;50.63;22.75;;;3.00;99.90;;;;;;5114418;28;20065;-66
2022/12/02 09:09:06;;;;;;;49.60;22.48;;;2.90;99.90;;;;;;5142989;27;20035;-67
2022/12/02 09:11:32;;;;;;;47.55;21.33;;;2.90;99.90;;;;;;5110149;28;20546;-66
2022/12/02 09:13:57;;;;;;;54.03;22.42;;;3.00;99.90;;;;;;5112504;27;20034;-67
2022/12/02 09:16:23;;;;;;;50.47;22.27;;;3.00;99.90;;;;;;5109742;28;20035;-66
2022/12/02 09:18:50;;;;;;;49.05;20.33;;;2.90;99.90;;;;;;5109162;28;20042;-67
2022/12/02 09:21:15;;;;;;;53.60;22.40;;;3.00;99.90;;;;;;5144385;27;20412;-67
2022/12/02 09:23:41;;;;;;;46.88;21.33;;;3.00;99.90;;;;;;5109855;28;20043;-66
2022/12/02 09:26:06;;;;;;;49.55;19.77;;;3.00;99.90;;;;;;5092508;28;20062;-66
2022/12/02 09:28:32;;;;;;;44.30;19.33;;;3.00;99.90;;;;;;5111221;28;20035;-66
2022/12/02 09:30:58;;;;;;;48.67;20.63;;;3.00;99.90;;;;;;5109168;28;20032;-67
2022/12/02 09:33:23;;;;;;;48.72;20.33;;;3.00;99.90;;;;;;5109452;28;20119;-66
2022/12/02 09:35:50;;;;;;;47.42;21.05;;;3.00;99.90;;;;;;5112870;28;20058;-67
2022/12/02 09:38:16;;;;;;;48.03;19.05;;;3.00;99.90;;;;;;5143623;27;20084;-67
2022/12/02 09:40:41;;;;;;;54.13;20.17;;;3.00;99.90;;;;;;5111847;28;20464;-67
2022/12/02 09:43:07;;;;;;;47.75;20.80;;;3.00;99.90;;;;;;5110030;28;20043;-67
2022/12/02 09:45:33;;;;;;;49.95;21.10;;;3.00;99.90;;;;;;5091884;28;20047;-67
2022/12/02 09:47:59;;;;;;;50.60;21.27;;;3.10;99.90;;;;;;5091706;28;20055;-66
2022/12/02 09:50:25;;;;;;;89.80;38.72;;;3.10;99.90;;;;;;5108853;28;20477;-67
2022/12/02 09:52:51;;;;;;;54.08;22.38;;;3.10;99.90;;;;;;5109430;28;20040;-67
2022/12/02 09:55:19;;;;;;;51.97;21.67;;;3.20;99.90;;;;;;5109194;28;20031;-67
2022/12/02 09:57:45;;;;;;;54.25;21.92;;;3.20;99.90;;;;;;5091756;28;20104;-67
2022/12/02 10:00:20;;;;;;;51.33;22.38;;;3.30;99.90;;;;;;5100439;28;20548;-66
2022/12/02 10:02:50;;;;;;;53.95;22.13;;;3.30;99.90;;;;;;5095025;28;20371;-68
2022/12/02 10:05:24;;;;;;;57.58;22.83;;;3.40;99.90;;;;;;5129815;27;20165;-66
2022/12/02 10:07:52;;;;;;;55.95;22.00;;;3.40;99.90;;;;;;5095380;28;20066;-66
2022/12/02 10:10:20;;;;;;;49.25;20.67;;;3.40;99.90;;;;;;5095635;28;20510;-66
2022/12/02 10:12:46;;;;;;;58.53;23.52;;;3.40;99.90;;;;;;5095141;28;20180;-68
2022/12/02 10:15:15;;;;;;;57.78;25.25;;;3.40;99.90;;;;;;5095303;28;20367;-67
2022/12/02 10:17:43;;;;;;;46.42;20.58;;;3.40;99.90;;;;;;5095157;28;20118;-67
2022/12/02 10:20:17;;;;;;;50.85;20.77;;;3.40;99.90;;;;;;5095480;28;20486;-66
2022/12/02 10:23:04;;;;;;;120.47;47.47;;;3.40;99.90;;;;;;5094721;28;20387;-67
2022/12/02 10:25:31;;;;;;;55.45;22.90;;;3.30;99.90;;;;;;5094560;28;20035;-66
2022/12/02 10:27:57;;;;;;;52.70;22.27;;;3.30;99.90;;;;;;5094929;28;20036;-67
2022/12/02 10:30:25;;;;;;;50.35;23.05;;;3.30;99.90;;;;;;5094810;28;20035;-66
2022/12/02 10:33:03;;;;;;;57.90;24.13;;;3.30;99.90;;;;;;5077960;28;20066;-66
2022/12/02 10:35:46;;;;;;;53.45;22.60;;;3.30;99.90;;;;;;5111159;28;20506;-66
2022/12/02 10:38:36;;;;;;;58.33;24.13;;;3.30;99.90;;;;;;5128760;27;20046;-66
2022/12/02 10:41:14;;;;;;;54.42;22.35;;;3.30;99.90;;;;;;5111652;28;20142;-67
2022/12/02 10:44:00;;;;;;;53.88;22.15;;;3.30;99.90;;;;;;5094326;28;20067;-66
2022/12/02 10:46:26;;;;;;;50.65;20.55;;;3.30;99.90;;;;;;5091390;28;20040;-67
2022/12/02 10:48:52;;;;;;;44.30;19.90;;;3.30;99.90;;;;;;5094258;28;20066;-66
2022/12/02 10:51:20;;;;;;;49.97;18.67;;;3.30;99.90;;;;;;5094621;28;20394;-67
2022/12/02 10:53:49;;;;;;;51.05;18.42;;;3.30;99.90;;;;;;5077748;28;20082;-67
2022/12/02 10:56:18;;;;;;;46.25;19.00;;;3.30;99.90;;;;;;5094218;28;20093;-66
2022/12/02 10:58:44;;;;;;;44.75;18.50;;;3.30;99.90;;;;;;5094268;28;20043;-67
2022/12/02 11:01:11;;;;;;;45.28;18.17;;;3.30;99.90;;;;;;5094474;28;20383;-67
2022/12/02 11:03:39;;;;;;;44.72;18.55;;;3.30;99.90;;;;;;5111336;28;20068;-66
2022/12/02 11:06:11;;;;;;;46.70;19.60;;;3.30;99.90;;;;;;5127150;27;20038;-67
2022/12/02 11:08:40;;;;;;;44.30;17.85;;;3.30;99.90;;;;;;5127237;27;20379;-66
2022/12/02 11:11:15;;;;;;;51.85;20.20;;;3.30;99.90;;;;;;5091701;28;20028;-67
2022/12/02 11:13:59;;;;;;;44.40;19.38;;;3.30;99.90;;;;;;5093904;28;20436;-66
2022/12/02 11:16:27;;;;;;;44.28;19.35;;;3.30;99.90;;;;;;5091877;28;20044;-67
2022/12/02 11:19:23;;;;;;;42.38;18.83;;;3.30;99.90;;;;;;5075185;27;20073;-67
2022/12/02 11:21:49;;;;;;;40.72;18.48;;;3.30;99.90;;;;;;5110442;27;20122;-66
2022/12/02 11:24:21;;;;;;;39.40;17.95;;;3.30;99.90;;;;;;5128038;27;20552;-66
2022/12/02 11:26:59;;;;;;;44.05;18.15;;;3.20;99.90;;;;;;5126497;27;20085;-66
2022/12/02 11:30:01;;;;;;;41.90;17.33;;;3.20;99.90;;;;;;5093200;27;20510;-66
2022/12/02 11:32:27;;;;;;;43.13;18.65;;;3.20;99.90;;;;;;5091366;28;20048;-66
2022/12/02 11:35:00;;;;;;;44.10;18.50;;;3.20;99.90;;;;;;5093541;28;20428;-66
2022/12/02 11:37:26;;;;;;;43.95;19.35;;;3.20;99.90;;;;;;5127330;27;20039;-67
2022/12/02 11:40:00;;;;;;;43.67;19.70;;;3.20;99.90;;;;;;5127394;27;20036;-67
2022/12/02 11:42:36;;;;;;;43.05;18.75;;;3.20;99.90;;;;;;5090125;28;20040;-66
2022/12/02 11:45:14;;;;;;;46.47;19.50;;;3.20;99.90;;;;;;5127009;27;20040;-66
2022/12/02 11:47:43;;;;;;;49.05;22.17;;;3.20;99.90;;;;;;5093137;28;20508;-66
2022/12/02 11:50:14;;;;;;;41.85;20.38;;;3.10;99.90;;;;;;5076449;28;20057;-66
2022/12/02 11:52:43;;;;;;;47.55;21.02;;;3.10;99.90;;;;;;5092542;28;20083;-66
2022/12/02 11:55:16;;;;;;;52.38;26.13;;;3.10;99.90;;;;;;5093114;28;20038;-67
2022/12/02 11:57:57;;;;;;;50.92;23.23;;;3.20;99.90;;;;;;5094581;28;20401;-66
2022/12/02 12:00:29;;;;;;;46.85;20.80;;;3.20;99.90;;;;;;5092298;28;20503;-66
2022/12/02 12:03:11;;;;;;;52.88;24.83;;;3.20;99.90;;;;;;5122893;27;20126;-66
2022/12/02 12:05:38;;;;;;;51.85;21.70;;;3.20;99.90;;;;;;5092768;28;20047;-66
2022/12/02 12:08:04;;;;;;;50.70;22.40;;;3.20;99.90;;;;;;5090708;28;20042;-67
2022/12/02 12:10:32;;;;;;;48.67;22.25;;;3.20;99.90;;;;;;5092429;28;20398;-66
2022/12/02 12:13:25;;;;;;;54.10;23.27;;;3.20;99.90;;;;;;5090333;28;20031;-67
2022/12/02 12:16:00;;;;;;;52.17;23.20;;;3.10;99.90;;;;;;5127332;27;20105;-66
2022/12/02 12:18:45;;;;;;;48.13;23.00;;;3.10;99.90;;;;;;5125461;27;20067;-67
2022/12/02 12:21:34;;;;;;;51.38;23.50;;;3.10;99.90;;;;;;5092075;28;20047;-67
2022/12/02 12:24:21;;;;;;;53.15;25.00;;;3.10;99.90;;;;;;5092749;28;20108;-66
2022/12/02 12:26:53;;;;;;;48.80;23.10;;;3.10;99.90;;;;;;5107147;28;20036;-66
2022/12/02 12:29:20;;;;;;;;;;;3.10;99.90;;;;;;5073574;28;20423;-68
2022/12/02 12:31:46;;;;;;;56.22;25.25;;;3.10;99.90;;;;;;5124255;27;20293;-66
2022/12/02 12:34:15;;;;;;;57.17;24.95;;;3.10;99.90;;;;;;5092554;28;20114;-66
2022/12/02 12:36:41;;;;;;;55.22;26.27;;;3.10;99.90;;;;;;5124940;27;20110;-66
2022/12/02 12:39:08;;;;;;;62.60;27.00;;;3.10;99.90;;;;;;5093017;28;20032;-67
2022/12/02 12:41:34;;;;;;;53.75;25.50;;;3.10;99.90;;;;;;5126712;27;20040;-66
2022/12/02 12:44:00;;;;;;;58.10;27.95;;;3.10;99.90;;;;;;5092770;28;20049;-66
2022/12/02 12:46:25;;;;;;;59.00;27.45;;;3.10;99.90;;;;;;5075547;28;20118;-67
2022/12/02 12:48:51;;;;;;;60.20;27.55;;;3.10;99.90;;;;;;5071286;28;20467;-66
2022/12/02 12:51:17;;;;;;;60.65;27.77;;;3.10;99.90;;;;;;5090017;28;20126;-67